sensor_id;sensor_type;location;lat;lon;timestamp;temperature;humidity
12746;DHT22;6437;53.686;10.030;2022-07-17T00:00:57;14.40;99.90
12746;DHT22;6437;53.686;10.030;2022-07-17T00:07:00;15.20;99.90
12746;DHT22;6437;53.686;10.030;2022-07-17T00:10:04;14.30;99.90
12746;DHT22;6437;53.686;10.030;2022-07-17T00:13:05;13.90;99.90
12746;DHT22;6437;53.686;10.030;2022-07-17T00:16:07;14.20;99.90
12746;DHT22;6437;53.686;10.030;2022-07-17T00:19:09;13.60;99.90
12746;DHT22;6437;53.686;10.030;2022-07-17T00:22:10;14.20;99.90
12746;DHT22;6437;53.686;10.030;2022-07-17T00:25:13;14.20;99.90
12746;DHT22;6437;53.686;10.030;2022-07-17T00:28:15;14.20;99.90
12746;DHT22;6437;53.686;10.030;2022-07-17T00:31:16;14.10;99.90
12746;DHT22;6437;53.686;10.030;2022-07-17T00:34:18;14.10;99.90
12746;DHT22;6437;53.686;10.030;2022-07-17T00:37:20;14.00;99.90
12746;DHT22;6437;53.686;10.030;2022-07-17T00:40:23;14.00;99.90
12746;DHT22;6437;53.686;10.030;2022-07-17T00:43:25;14.00;99.90
12746;DHT22;6437;53.686;10.030;2022-07-17T00:46:27;14.00;99.90
12746;DHT22;6437;53.686;10.030;2022-07-17T00:49:28;14.00;99.90
12746;DHT22;6437;53.686;10.030;2022-07-17T00:52:30;14.00;99.90
12746;DHT22;6437;53.686;10.030;2022-07-17T00:55:33;14.00;99.90
12746;DHT22;6437;53.686;10.030;2022-07-17T00:58:35;13.90;99.90
12746;DHT22;6437;53.686;10.030;2022-07-17T01:01:37;12.70;99.90
12746;DHT22;6437;53.686;10.030;2022-07-17T01:04:39;13.90;99.90
12746;DHT22;6437;53.686;10.030;2022-07-17T01:07:41;13.80;99.90
12746;DHT22;6437;53.686;10.030;2022-07-17T01:10:44;13.80;99.90
12746;DHT22;6437;53.686;10.030;2022-07-17T01:13:46;13.80;99.90
12746;DHT22;6437;53.686;10.030;2022-07-17T01:16:48;13.80;99.90
12746;DHT22;6437;53.686;10.030;2022-07-17T01:19:49;13.70;99.90
12746;DHT22;6437;53.686;10.030;2022-07-17T01:22:52;13.60;99.90
12746;DHT22;6437;53.686;10.030;2022-07-17T01:25:54;13.50;99.90
12746;DHT22;6437;53.686;10.030;2022-07-17T01:28:56;13.60;99.90
12746;DHT22;6437;53.686;10.030;2022-07-17T01:31:57;13.60;99.90
12746;DHT22;6437;53.686;10.030;2022-07-17T01:34:59;13.60;99.90
12746;DHT22;6437;53.686;10.030;2022-07-17T01:38:02;13.60;99.90
12746;DHT22;6437;53.686;10.030;2022-07-17T01:41:04;13.60;99.90
12746;DHT22;6437;53.686;10.030;2022-07-17T01:44:06;13.60;99.90
12746;DHT22;6437;53.686;10.030;2022-07-17T01:47:08;13.60;99.90
12746;DHT22;6437;53.686;10.030;2022-07-17T01:50:10;13.60;99.90
12746;DHT22;6437;53.686;10.030;2022-07-17T01:53:14;13.50;99.90
12746;DHT22;6437;53.686;10.030;2022-07-17T01:56:16;13.60;99.90
12746;DHT22;6437;53.686;10.030;2022-07-17T01:59:17;13.60;99.90
12746;DHT22;6437;53.686;10.030;2022-07-17T02:02:19;12.60;99.90
12746;DHT22;6437;53.686;10.030;2022-07-17T02:05:21;14.50;99.90
12746;DHT22;6437;53.686;10.030;2022-07-17T02:08:24;13.60;99.90
12746;DHT22;6437;53.686;10.030;2022-07-17T02:11:26;13.60;99.90
12746;DHT22;6437;53.686;10.030;2022-07-17T02:14:27;13.60;99.90
12746;DHT22;6437;53.686;10.030;2022-07-17T02:17:29;13.60;99.90
12746;DHT22;6437;53.686;10.030;2022-07-17T02:20:31;13.60;99.90
12746;DHT22;6437;53.686;10.030;2022-07-17T02:23:34;13.60;99.90
12746;DHT22;6437;53.686;10.030;2022-07-17T02:26:36;13.60;99.90
12746;DHT22;6437;53.686;10.030;2022-07-17T02:29:37;13.70;99.90
12746;DHT22;6437;53.686;10.030;2022-07-17T02:32:39;13.70;99.90
12746;DHT22;6437;53.686;10.030;2022-07-17T02:35:41;13.70;99.90
12746;DHT22;6437;53.686;10.030;2022-07-17T02:38:44;13.70;99.90
12746;DHT22;6437;53.686;10.030;2022-07-17T02:41:46;13.80;99.90
12746;DHT22;6437;53.686;10.030;2022-07-17T02:44:47;13.80;99.90
12746;DHT22;6437;53.686;10.030;2022-07-17T02:47:49;13.90;99.90
12746;DHT22;6437;53.686;10.030;2022-07-17T02:50:51;13.90;99.90
12746;DHT22;6437;53.686;10.030;2022-07-17T02:53:54;13.90;99.90
12746;DHT22;6437;53.686;10.030;2022-07-17T02:56:55;13.90;99.90
12746;DHT22;6437;53.686;10.030;2022-07-17T02:59:57;13.30;99.90
12746;DHT22;6437;53.686;10.030;2022-07-17T03:02:58;14.00;99.90
12746;DHT22;6437;53.686;10.030;2022-07-17T03:06:00;13.90;99.90
12746;DHT22;6437;53.686;10.030;2022-07-17T03:09:03;13.90;99.90
12746;DHT22;6437;53.686;10.030;2022-07-17T03:12:05;14.00;99.90
12746;DHT22;6437;53.686;10.030;2022-07-17T03:15:07;14.30;99.90
12746;DHT22;6437;53.686;10.030;2022-07-17T03:18:08;14.00;99.90
12746;DHT22;6437;53.686;10.030;2022-07-17T03:21:10;14.00;99.90
12746;DHT22;6437;53.686;10.030;2022-07-17T03:24:13;14.00;99.90
12746;DHT22;6437;53.686;10.030;2022-07-17T03:27:14;14.10;99.90
12746;DHT22;6437;53.686;10.030;2022-07-17T03:30:16;14.10;99.90
12746;DHT22;6437;53.686;10.030;2022-07-17T03:33:18;14.10;99.90
12746;DHT22;6437;53.686;10.030;2022-07-17T03:36:19;14.20;99.90
12746;DHT22;6437;53.686;10.030;2022-07-17T03:39:22;14.20;99.90
12746;DHT22;6437;53.686;10.030;2022-07-17T03:42:24;14.20;99.90
12746;DHT22;6437;53.686;10.030;2022-07-17T03:45:26;14.20;99.90
12746;DHT22;6437;53.686;10.030;2022-07-17T03:48:28;14.20;99.90
12746;DHT22;6437;53.686;10.030;2022-07-17T03:51:29;14.20;99.90
12746;DHT22;6437;53.686;10.030;2022-07-17T03:54:32;12.90;99.90
12746;DHT22;6437;53.686;10.030;2022-07-17T03:57:34;14.30;99.90
12746;DHT22;6437;53.686;10.030;2022-07-17T04:00:36;14.30;99.90
12746;DHT22;6437;53.686;10.030;2022-07-17T04:03:37;15.00;99.90
12746;DHT22;6437;53.686;10.030;2022-07-17T04:06:39;14.40;99.90
12746;DHT22;6437;53.686;10.030;2022-07-17T04:09:42;14.30;99.90
12746;DHT22;6437;53.686;10.030;2022-07-17T04:12:43;15.00;99.90
12746;DHT22;6437;53.686;10.030;2022-07-17T04:15:45;14.40;99.90
12746;DHT22;6437;53.686;10.030;2022-07-17T04:18:57;14.40;99.90
12746;DHT22;6437;53.686;10.030;2022-07-17T04:21:58;14.40;99.90
12746;DHT22;6437;53.686;10.030;2022-07-17T04:25:01;14.50;99.90
12746;DHT22;6437;53.686;10.030;2022-07-17T04:28:03;14.50;99.90
12746;DHT22;6437;53.686;10.030;2022-07-17T04:31:05;14.50;99.90
12746;DHT22;6437;53.686;10.030;2022-07-17T04:34:06;14.50;99.90
12746;DHT22;6437;53.686;10.030;2022-07-17T04:37:08;14.50;99.90
12746;DHT22;6437;53.686;10.030;2022-07-17T04:40:11;14.50;99.90
12746;DHT22;6437;53.686;10.030;2022-07-17T04:43:13;14.50;99.90
12746;DHT22;6437;53.686;10.030;2022-07-17T04:46:14;14.60;99.90
12746;DHT22;6437;53.686;10.030;2022-07-17T04:49:16;14.60;99.90
12746;DHT22;6437;53.686;10.030;2022-07-17T04:52:18;14.60;99.90
12746;DHT22;6437;53.686;10.030;2022-07-17T04:55:21;14.60;99.90
12746;DHT22;6437;53.686;10.030;2022-07-17T04:58:22;14.70;99.90
12746;DHT22;6437;53.686;10.030;2022-07-17T05:01:24;14.70;99.90
12746;DHT22;6437;53.686;10.030;2022-07-17T05:04:25;14.80;99.90
12746;DHT22;6437;53.686;10.030;2022-07-17T05:07:27;14.80;99.90
12746;DHT22;6437;53.686;10.030;2022-07-17T05:10:30;14.80;99.90
12746;DHT22;6437;53.686;10.030;2022-07-17T05:13:31;16.40;99.90
12746;DHT22;6437;53.686;10.030;2022-07-17T05:16:33;14.80;99.90
12746;DHT22;6437;53.686;10.030;2022-07-17T05:19:35;14.90;99.90
12746;DHT22;6437;53.686;10.030;2022-07-17T05:22:38;15.00;99.90
12746;DHT22;6437;53.686;10.030;2022-07-17T05:25:41;15.00;99.90
12746;DHT22;6437;53.686;10.030;2022-07-17T05:28:44;15.00;99.90
12746;DHT22;6437;53.686;10.030;2022-07-17T05:31:45;15.00;99.90
12746;DHT22;6437;53.686;10.030;2022-07-17T05:34:47;15.10;99.90
12746;DHT22;6437;53.686;10.030;2022-07-17T05:37:49;14.70;99.90
12746;DHT22;6437;53.686;10.030;2022-07-17T05:40:52;15.60;99.90
12746;DHT22;6437;53.686;10.030;2022-07-17T05:43:53;15.20;99.90
12746;DHT22;6437;53.686;10.030;2022-07-17T05:46:55;15.20;99.90
12746;DHT22;6437;53.686;10.030;2022-07-17T05:49:56;15.20;99.90
12746;DHT22;6437;53.686;10.030;2022-07-17T05:52:58;15.30;99.90
12746;DHT22;6437;53.686;10.030;2022-07-17T05:56:01;15.30;99.90
12746;DHT22;6437;53.686;10.030;2022-07-17T05:59:03;15.30;99.90
12746;DHT22;6437;53.686;10.030;2022-07-17T06:02:04;15.40;99.90
12746;DHT22;6437;53.686;10.030;2022-07-17T06:05:06;15.40;99.90
12746;DHT22;6437;53.686;10.030;2022-07-17T06:08:08;15.40;99.90
12746;DHT22;6437;53.686;10.030;2022-07-17T06:11:11;15.40;99.90
12746;DHT22;6437;53.686;10.030;2022-07-17T06:14:13;15.50;99.90
12746;DHT22;6437;53.686;10.030;2022-07-17T06:17:14;15.50;99.90
12746;DHT22;6437;53.686;10.030;2022-07-17T06:20:16;15.50;99.90
12746;DHT22;6437;53.686;10.030;2022-07-17T06:23:17;15.60;99.90
12746;DHT22;6437;53.686;10.030;2022-07-17T06:26:20;15.70;99.90
12746;DHT22;6437;53.686;10.030;2022-07-17T06:29:22;15.70;99.90
12746;DHT22;6437;53.686;10.030;2022-07-17T06:32:24;15.80;99.90
12746;DHT22;6437;53.686;10.030;2022-07-17T06:35:25;15.90;99.90
12746;DHT22;6437;53.686;10.030;2022-07-17T06:38:29;15.90;99.90
12746;DHT22;6437;53.686;10.030;2022-07-17T06:41:32;15.30;99.90
12746;DHT22;6437;53.686;10.030;2022-07-17T06:44:34;16.00;99.90
12746;DHT22;6437;53.686;10.030;2022-07-17T06:47:37;16.10;99.90
12746;DHT22;6437;53.686;10.030;2022-07-17T06:50:38;16.20;99.90
12746;DHT22;6437;53.686;10.030;2022-07-17T06:53:40;16.20;99.90
12746;DHT22;6437;53.686;10.030;2022-07-17T06:56:43;16.10;99.90
12746;DHT22;6437;53.686;10.030;2022-07-17T06:59:45;16.10;99.90
12746;DHT22;6437;53.686;10.030;2022-07-17T07:02:46;16.20;99.90
12746;DHT22;6437;53.686;10.030;2022-07-17T07:05:48;16.20;99.90
12746;DHT22;6437;53.686;10.030;2022-07-17T07:08:51;16.20;99.90
12746;DHT22;6437;53.686;10.030;2022-07-17T07:11:54;16.30;99.90
12746;DHT22;6437;53.686;10.030;2022-07-17T07:14:55;16.40;99.90
12746;DHT22;6437;53.686;10.030;2022-07-17T07:17:57;16.50;99.90
12746;DHT22;6437;53.686;10.030;2022-07-17T07:20:59;16.40;99.90
12746;DHT22;6437;53.686;10.030;2022-07-17T07:24:00;16.50;99.90
12746;DHT22;6437;53.686;10.030;2022-07-17T07:27:03;16.50;99.90
12746;DHT22;6437;53.686;10.030;2022-07-17T07:30:05;16.50;99.90
12746;DHT22;6437;53.686;10.030;2022-07-17T07:33:09;16.60;99.90
12746;DHT22;6437;53.686;10.030;2022-07-17T07:36:11;16.70;99.90
12746;DHT22;6437;53.686;10.030;2022-07-17T07:39:13;16.70;99.90
12746;DHT22;6437;53.686;10.030;2022-07-17T07:42:16;16.70;99.90
12746;DHT22;6437;53.686;10.030;2022-07-17T07:45:18;16.70;99.90
12746;DHT22;6437;53.686;10.030;2022-07-17T07:48:19;16.80;99.90
12746;DHT22;6437;53.686;10.030;2022-07-17T07:51:21;16.90;99.90
12746;DHT22;6437;53.686;10.030;2022-07-17T07:54:23;16.90;99.90
12746;DHT22;6437;53.686;10.030;2022-07-17T07:57:26;16.90;99.90
12746;DHT22;6437;53.686;10.030;2022-07-17T08:00:27;16.90;99.90
12746;DHT22;6437;53.686;10.030;2022-07-17T08:03:29;17.00;99.90
12746;DHT22;6437;53.686;10.030;2022-07-17T08:06:30;17.10;99.90
12746;DHT22;6437;53.686;10.030;2022-07-17T08:09:32;17.10;99.90
12746;DHT22;6437;53.686;10.030;2022-07-17T08:12:35;17.10;99.90
12746;DHT22;6437;53.686;10.030;2022-07-17T08:15:37;17.20;99.90
12746;DHT22;6437;53.686;10.030;2022-07-17T08:18:38;17.20;99.90
12746;DHT22;6437;53.686;10.030;2022-07-17T08:21:40;17.30;99.90
12746;DHT22;6437;53.686;10.030;2022-07-17T08:24:41;17.30;99.90
12746;DHT22;6437;53.686;10.030;2022-07-17T08:27:44;17.50;99.90
12746;DHT22;6437;53.686;10.030;2022-07-17T08:30:46;17.40;99.90
12746;DHT22;6437;53.686;10.030;2022-07-17T08:33:48;17.40;99.90
12746;DHT22;6437;53.686;10.030;2022-07-17T08:36:49;17.40;99.90
12746;DHT22;6437;53.686;10.030;2022-07-17T08:39:51;17.50;99.90
12746;DHT22;6437;53.686;10.030;2022-07-17T08:42:54;17.50;99.90
12746;DHT22;6437;53.686;10.030;2022-07-17T08:45:56;17.50;99.90
12746;DHT22;6437;53.686;10.030;2022-07-17T08:48:58;17.50;99.90
12746;DHT22;6437;53.686;10.030;2022-07-17T08:52:00;17.60;99.90
12746;DHT22;6437;53.686;10.030;2022-07-17T08:55:02;17.60;99.90
12746;DHT22;6437;53.686;10.030;2022-07-17T08:58:05;17.60;99.90
12746;DHT22;6437;53.686;10.030;2022-07-17T09:01:06;17.70;99.90
12746;DHT22;6437;53.686;10.030;2022-07-17T09:04:08;17.80;99.90
12746;DHT22;6437;53.686;10.030;2022-07-17T09:07:09;17.80;99.90
12746;DHT22;6437;53.686;10.030;2022-07-17T09:10:12;17.80;99.90
12746;DHT22;6437;53.686;10.030;2022-07-17T09:13:18;17.90;99.90
12746;DHT22;6437;53.686;10.030;2022-07-17T09:16:20;18.30;99.90
12746;DHT22;6437;53.686;10.030;2022-07-17T09:19:26;17.90;99.90
12746;DHT22;6437;53.686;10.030;2022-07-17T09:22:27;18.00;99.90
12746;DHT22;6437;53.686;10.030;2022-07-17T09:25:36;18.00;99.90
12746;DHT22;6437;53.686;10.030;2022-07-17T09:28:45;18.10;99.90
12746;DHT22;6437;53.686;10.030;2022-07-17T09:31:47;18.10;99.90
12746;DHT22;6437;53.686;10.030;2022-07-17T09:34:53;18.10;99.90
12746;DHT22;6437;53.686;10.030;2022-07-17T09:37:55;18.20;99.90
12746;DHT22;6437;53.686;10.030;2022-07-17T09:41:03;18.30;99.90
12746;DHT22;6437;53.686;10.030;2022-07-17T09:44:13;18.20;99.90
12746;DHT22;6437;53.686;10.030;2022-07-17T09:47:14;18.30;99.90
12746;DHT22;6437;53.686;10.030;2022-07-17T09:50:16;18.30;99.90
12746;DHT22;6437;53.686;10.030;2022-07-17T09:53:19;18.40;99.90
12746;DHT22;6437;53.686;10.030;2022-07-17T09:56:22;18.40;99.90
12746;DHT22;6437;53.686;10.030;2022-07-17T09:59:25;18.40;99.90
12746;DHT22;6437;53.686;10.030;2022-07-17T10:02:31;18.50;99.90
12746;DHT22;6437;53.686;10.030;2022-07-17T10:05:33;18.50;99.90
12746;DHT22;6437;53.686;10.030;2022-07-17T10:08:35;18.60;99.90
12746;DHT22;6437;53.686;10.030;2022-07-17T10:11:38;18.60;99.90
12746;DHT22;6437;53.686;10.030;2022-07-17T10:14:41;18.60;99.90
12746;DHT22;6437;53.686;10.030;2022-07-17T10:17:43;18.60;99.90
12746;DHT22;6437;53.686;10.030;2022-07-17T10:20:44;18.60;99.90
12746;DHT22;6437;53.686;10.030;2022-07-17T10:23:47;18.70;99.90
12746;DHT22;6437;53.686;10.030;2022-07-17T10:26:49;18.70;99.90
12746;DHT22;6437;53.686;10.030;2022-07-17T10:30:03;18.80;99.90
12746;DHT22;6437;53.686;10.030;2022-07-17T10:33:05;18.80;99.90
12746;DHT22;6437;53.686;10.030;2022-07-17T10:36:07;18.90;99.90
12746;DHT22;6437;53.686;10.030;2022-07-17T10:39:12;18.90;99.90
12746;DHT22;6437;53.686;10.030;2022-07-17T10:42:14;19.00;99.90
12746;DHT22;6437;53.686;10.030;2022-07-17T10:45:17;19.10;99.90
12746;DHT22;6437;53.686;10.030;2022-07-17T10:48:20;19.10;99.90
12746;DHT22;6437;53.686;10.030;2022-07-17T10:51:23;19.10;99.90
12746;DHT22;6437;53.686;10.030;2022-07-17T10:54:31;18.50;99.90
12746;DHT22;6437;53.686;10.030;2022-07-17T10:57:33;19.20;99.90
12746;DHT22;6437;53.686;10.030;2022-07-17T11:00:36;19.30;99.90
12746;DHT22;6437;53.686;10.030;2022-07-17T11:03:39;19.30;99.90
12746;DHT22;6437;53.686;10.030;2022-07-17T11:06:41;19.40;99.90
12746;DHT22;6437;53.686;10.030;2022-07-17T11:09:46;19.50;99.90
12746;DHT22;6437;53.686;10.030;2022-07-17T11:12:47;19.50;99.90
12746;DHT22;6437;53.686;10.030;2022-07-17T11:15:51;19.60;99.90
12746;DHT22;6437;53.686;10.030;2022-07-17T11:18:53;19.70;99.90
12746;DHT22;6437;53.686;10.030;2022-07-17T11:21:55;19.70;99.90
12746;DHT22;6437;53.686;10.030;2022-07-17T11:24:58;19.80;99.90
12746;DHT22;6437;53.686;10.030;2022-07-17T11:27:59;19.90;99.90
12746;DHT22;6437;53.686;10.030;2022-07-17T11:31:03;20.00;99.90
12746;DHT22;6437;53.686;10.030;2022-07-17T11:34:05;20.00;99.90
12746;DHT22;6437;53.686;10.030;2022-07-17T11:37:09;20.10;99.90
12746;DHT22;6437;53.686;10.030;2022-07-17T11:40:11;20.20;99.90
12746;DHT22;6437;53.686;10.030;2022-07-17T11:43:13;20.20;99.90
12746;DHT22;6437;53.686;10.030;2022-07-17T11:46:16;20.20;99.90
12746;DHT22;6437;53.686;10.030;2022-07-17T11:49:23;20.20;99.90
12746;DHT22;6437;53.686;10.030;2022-07-17T11:52:25;20.20;99.90
12746;DHT22;6437;53.686;10.030;2022-07-17T11:55:34;20.20;99.90
12746;DHT22;6437;53.686;10.030;2022-07-17T11:58:42;20.20;99.90
12746;DHT22;6437;53.686;10.030;2022-07-17T12:01:46;20.20;99.90
12746;DHT22;6437;53.686;10.030;2022-07-17T12:04:48;20.30;99.90
12746;DHT22;6437;53.686;10.030;2022-07-17T12:07:50;20.30;99.90
12746;DHT22;6437;53.686;10.030;2022-07-17T12:11:04;20.30;99.90
12746;DHT22;6437;53.686;10.030;2022-07-17T12:14:07;20.30;99.90
12746;DHT22;6437;53.686;10.030;2022-07-17T12:17:10;20.40;99.90
12746;DHT22;6437;53.686;10.030;2022-07-17T12:20:11;20.40;99.90
12746;DHT22;6437;53.686;10.030;2022-07-17T12:23:25;20.40;99.90
12746;DHT22;6437;53.686;10.030;2022-07-17T12:26:27;20.50;99.90
12746;DHT22;6437;53.686;10.030;2022-07-17T12:29:28;20.50;99.90
12746;DHT22;6437;53.686;10.030;2022-07-17T12:32:31;20.60;99.90
12746;DHT22;6437;53.686;10.030;2022-07-17T12:35:41;20.60;99.90
12746;DHT22;6437;53.686;10.030;2022-07-17T12:38:43;20.60;99.90
12746;DHT22;6437;53.686;10.030;2022-07-17T12:41:44;20.60;99.90
12746;DHT22;6437;53.686;10.030;2022-07-17T12:44:46;20.60;99.90
12746;DHT22;6437;53.686;10.030;2022-07-17T12:47:49;21.80;99.90
12746;DHT22;6437;53.686;10.030;2022-07-17T12:50:50;20.70;99.90
12746;DHT22;6437;53.686;10.030;2022-07-17T12:53:52;20.70;99.90
12746;DHT22;6437;53.686;10.030;2022-07-17T12:56:54;20.70;99.90
12746;DHT22;6437;53.686;10.030;2022-07-17T12:59:55;20.80;99.90
12746;DHT22;6437;53.686;10.030;2022-07-17T13:02:58;20.80;99.90
12746;DHT22;6437;53.686;10.030;2022-07-17T13:06:00;20.90;99.90
12746;DHT22;6437;53.686;10.030;2022-07-17T13:09:02;20.90;99.90
12746;DHT22;6437;53.686;10.030;2022-07-17T13:12:03;20.90;99.90
12746;DHT22;6437;53.686;10.030;2022-07-17T13:15:06;20.90;99.90
12746;DHT22;6437;53.686;10.030;2022-07-17T13:18:09;21.00;99.90
12746;DHT22;6437;53.686;10.030;2022-07-17T13:21:11;21.00;99.90
12746;DHT22;6437;53.686;10.030;2022-07-17T13:24:13;20.70;99.90
12746;DHT22;6437;53.686;10.030;2022-07-17T13:27:14;21.00;99.90
12746;DHT22;6437;53.686;10.030;2022-07-17T13:30:16;21.00;99.90
12746;DHT22;6437;53.686;10.030;2022-07-17T13:33:19;21.00;99.90
12746;DHT22;6437;53.686;10.030;2022-07-17T13:36:21;20.90;99.90
12746;DHT22;6437;53.686;10.030;2022-07-17T13:39:22;20.60;99.90
12746;DHT22;6437;53.686;10.030;2022-07-17T13:42:24;21.10;99.90
12746;DHT22;6437;53.686;10.030;2022-07-17T13:45:26;21.10;99.90
12746;DHT22;6437;53.686;10.030;2022-07-17T13:48:29;20.70;99.90
12746;DHT22;6437;53.686;10.030;2022-07-17T13:51:31;21.10;99.90
12746;DHT22;6437;53.686;10.030;2022-07-17T13:54:33;21.10;99.90
12746;DHT22;6437;53.686;10.030;2022-07-17T13:57:35;21.10;99.90
12746;DHT22;6437;53.686;10.030;2022-07-17T14:00:39;21.10;99.90
12746;DHT22;6437;53.686;10.030;2022-07-17T14:03:45;21.10;99.90
12746;DHT22;6437;53.686;10.030;2022-07-17T14:06:47;21.10;99.90
12746;DHT22;6437;53.686;10.030;2022-07-17T14:09:49;21.10;99.90
12746;DHT22;6437;53.686;10.030;2022-07-17T14:12:51;21.10;99.90
12746;DHT22;6437;53.686;10.030;2022-07-17T14:15:52;21.10;99.90
12746;DHT22;6437;53.686;10.030;2022-07-17T14:18:55;21.10;99.90
12746;DHT22;6437;53.686;10.030;2022-07-17T14:22:01;21.10;99.90
12746;DHT22;6437;53.686;10.030;2022-07-17T14:25:02;21.10;99.90
12746;DHT22;6437;53.686;10.030;2022-07-17T14:28:04;21.10;99.90
12746;DHT22;6437;53.686;10.030;2022-07-17T14:31:06;21.20;99.90
12746;DHT22;6437;53.686;10.030;2022-07-17T14:34:09;21.30;99.90
12746;DHT22;6437;53.686;10.030;2022-07-17T14:37:10;20.60;99.90
12746;DHT22;6437;53.686;10.030;2022-07-17T14:40:12;21.50;99.90
12746;DHT22;6437;53.686;10.030;2022-07-17T14:43:14;21.80;99.90
12746;DHT22;6437;53.686;10.030;2022-07-17T14:46:16;22.30;99.90
12746;DHT22;6437;53.686;10.030;2022-07-17T14:49:19;23.10;99.90
12746;DHT22;6437;53.686;10.030;2022-07-17T14:52:20;24.00;99.90
12746;DHT22;6437;53.686;10.030;2022-07-17T14:55:22;25.00;99.60
12746;DHT22;6437;53.686;10.030;2022-07-17T14:58:24;25.80;97.70
12746;DHT22;6437;53.686;10.030;2022-07-17T15:01:25;26.20;96.00
12746;DHT22;6437;53.686;10.030;2022-07-17T15:04:28;26.30;95.40
12746;DHT22;6437;53.686;10.030;2022-07-17T15:07:30;26.20;95.10
12746;DHT22;6437;53.686;10.030;2022-07-17T15:10:32;26.10;95.50
12746;DHT22;6437;53.686;10.030;2022-07-17T15:13:34;25.80;95.60
12746;DHT22;6437;53.686;10.030;2022-07-17T15:16:36;25.60;95.80
12746;DHT22;6437;53.686;10.030;2022-07-17T15:19:39;25.40;95.60
12746;DHT22;6437;53.686;10.030;2022-07-17T15:22:40;25.20;95.50
12746;DHT22;6437;53.686;10.030;2022-07-17T15:25:42;25.00;95.70
12746;DHT22;6437;53.686;10.030;2022-07-17T15:28:43;24.80;95.90
12746;DHT22;6437;53.686;10.030;2022-07-17T15:31:46;24.50;96.50
12746;DHT22;6437;53.686;10.030;2022-07-17T15:34:49;24.30;97.00
12746;DHT22;6437;53.686;10.030;2022-07-17T15:37:51;24.00;97.00
12746;DHT22;6437;53.686;10.030;2022-07-17T15:40:53;23.70;97.60
12746;DHT22;6437;53.686;10.030;2022-07-17T15:43:55;23.40;98.10
12746;DHT22;6437;53.686;10.030;2022-07-17T15:46:57;23.20;98.70
12746;DHT22;6437;53.686;10.030;2022-07-17T15:50:00;23.10;98.70
12746;DHT22;6437;53.686;10.030;2022-07-17T15:53:01;22.90;99.30
12746;DHT22;6437;53.686;10.030;2022-07-17T15:56:03;22.60;99.80
12746;DHT22;6437;53.686;10.030;2022-07-17T15:59:05;22.50;99.90
12746;DHT22;6437;53.686;10.030;2022-07-17T16:02:06;22.40;99.90
12746;DHT22;6437;53.686;10.030;2022-07-17T16:05:09;22.20;99.90
12746;DHT22;6437;53.686;10.030;2022-07-17T16:08:11;22.10;99.90
12746;DHT22;6437;53.686;10.030;2022-07-17T16:11:13;22.00;99.90
12746;DHT22;6437;53.686;10.030;2022-07-17T16:14:14;22.50;99.90
12746;DHT22;6437;53.686;10.030;2022-07-17T16:17:16;21.80;99.90
12746;DHT22;6437;53.686;10.030;2022-07-17T16:20:19;21.70;99.90
12746;DHT22;6437;53.686;10.030;2022-07-17T16:23:21;21.60;99.90
12746;DHT22;6437;53.686;10.030;2022-07-17T16:26:23;21.60;99.90
12746;DHT22;6437;53.686;10.030;2022-07-17T16:29:25;21.50;99.90
12746;DHT22;6437;53.686;10.030;2022-07-17T16:32:26;21.50;99.90
12746;DHT22;6437;53.686;10.030;2022-07-17T16:35:30;21.40;99.90
12746;DHT22;6437;53.686;10.030;2022-07-17T16:38:31;21.40;99.90
12746;DHT22;6437;53.686;10.030;2022-07-17T16:41:33;21.30;99.90
12746;DHT22;6437;53.686;10.030;2022-07-17T16:44:34;21.30;99.90
12746;DHT22;6437;53.686;10.030;2022-07-17T16:47:36;21.30;99.90
12746;DHT22;6437;53.686;10.030;2022-07-17T16:50:39;21.20;99.90
12746;DHT22;6437;53.686;10.030;2022-07-17T16:53:44;21.20;99.90
12746;DHT22;6437;53.686;10.030;2022-07-17T16:56:46;21.50;99.90
12746;DHT22;6437;53.686;10.030;2022-07-17T16:59:47;21.10;99.90
12746;DHT22;6437;53.686;10.030;2022-07-17T17:02:49;21.10;99.90
12746;DHT22;6437;53.686;10.030;2022-07-17T17:05:52;21.10;99.90
12746;DHT22;6437;53.686;10.030;2022-07-17T17:08:53;21.00;99.90
12746;DHT22;6437;53.686;10.030;2022-07-17T17:11:55;21.00;99.90
12746;DHT22;6437;53.686;10.030;2022-07-17T17:14:56;21.00;99.90
12746;DHT22;6437;53.686;10.030;2022-07-17T17:17:58;21.00;99.90
12746;DHT22;6437;53.686;10.030;2022-07-17T17:21:01;21.00;99.90
12746;DHT22;6437;53.686;10.030;2022-07-17T17:24:03;20.90;99.90
12746;DHT22;6437;53.686;10.030;2022-07-17T17:27:05;20.90;99.90
12746;DHT22;6437;53.686;10.030;2022-07-17T17:30:07;20.90;99.90
12746;DHT22;6437;53.686;10.030;2022-07-17T17:33:09;20.90;99.90
12746;DHT22;6437;53.686;10.030;2022-07-17T17:36:12;20.80;99.90
12746;DHT22;6437;53.686;10.030;2022-07-17T17:39:14;20.30;99.90
12746;DHT22;6437;53.686;10.030;2022-07-17T17:42:15;20.80;99.90
12746;DHT22;6437;53.686;10.030;2022-07-17T17:45:17;20.80;99.90
12746;DHT22;6437;53.686;10.030;2022-07-17T17:48:19;20.70;99.90
12746;DHT22;6437;53.686;10.030;2022-07-17T17:51:22;20.70;99.90
12746;DHT22;6437;53.686;10.030;2022-07-17T17:54:23;20.70;99.90
12746;DHT22;6437;53.686;10.030;2022-07-17T17:57:25;20.60;99.90
12746;DHT22;6437;53.686;10.030;2022-07-17T18:00:26;20.70;99.90
12746;DHT22;6437;53.686;10.030;2022-07-17T18:03:28;20.60;99.90
12746;DHT22;6437;53.686;10.030;2022-07-17T18:06:31;20.60;99.90
12746;DHT22;6437;53.686;10.030;2022-07-17T18:09:35;20.60;99.90
12746;DHT22;6437;53.686;10.030;2022-07-17T18:12:37;20.60;99.90
12746;DHT22;6437;53.686;10.030;2022-07-17T18:15:38;20.60;99.90
12746;DHT22;6437;53.686;10.030;2022-07-17T18:18:40;20.50;99.90
12746;DHT22;6437;53.686;10.030;2022-07-17T18:21:43;20.50;99.90
12746;DHT22;6437;53.686;10.030;2022-07-17T18:24:45;20.50;99.90
12746;DHT22;6437;53.686;10.030;2022-07-17T18:27:46;19.90;99.90
12746;DHT22;6437;53.686;10.030;2022-07-17T18:30:48;20.50;99.90
12746;DHT22;6437;53.686;10.030;2022-07-17T18:33:49;20.40;99.90
12746;DHT22;6437;53.686;10.030;2022-07-17T18:36:52;20.50;99.90
12746;DHT22;6437;53.686;10.030;2022-07-17T18:39:54;20.40;99.90
12746;DHT22;6437;53.686;10.030;2022-07-17T18:42:56;20.40;99.90
12746;DHT22;6437;53.686;10.030;2022-07-17T18:45:57;20.30;99.90
12746;DHT22;6437;53.686;10.030;2022-07-17T18:48:59;20.30;99.90
12746;DHT22;6437;53.686;10.030;2022-07-17T18:52:02;20.30;99.90
12746;DHT22;6437;53.686;10.030;2022-07-17T18:55:04;20.30;99.90
12746;DHT22;6437;53.686;10.030;2022-07-17T18:58:05;20.20;99.90
12746;DHT22;6437;53.686;10.030;2022-07-17T19:01:07;20.20;99.90
12746;DHT22;6437;53.686;10.030;2022-07-17T19:04:09;20.20;99.90
12746;DHT22;6437;53.686;10.030;2022-07-17T19:07:12;20.10;99.90
12746;DHT22;6437;53.686;10.030;2022-07-17T19:10:14;20.10;99.90
12746;DHT22;6437;53.686;10.030;2022-07-17T19:13:15;20.10;99.90